Time;durP1;ratioP1;P1;durP2;ratioP2;P2;SDS_P1;SDS_P2;PMS_P1;PMS_P2;Temp;Humidity;BMP_temperature;BMP_pressure;BME280_temperature;BME280_humidity;BME280_pressure;Samples;Min_cycle;Max_cycle;Signal;HPM_P1;HPM_P2
2023/09/15 00:02:24;;;;;;;4.30;4.00;;;18.00;99.90;;;;;;10253967;29;20291;-79
2023/09/15 00:07:27;;;;;;;4.67;4.27;;;17.90;99.90;;;;;;10228498;28;20279;-79
2023/09/15 00:12:31;;;;;;;4.80;4.40;;;17.90;99.90;;;;;;10258678;29;20197;-80
2023/09/15 00:17:35;;;;;;;4.37;4.00;;;17.90;99.90;;;;;;10276782;28;20229;-79
2023/09/15 00:22:37;;;;;;;4.40;4.00;;;17.90;99.90;;;;;;10255742;29;20225;-78
2023/09/15 00:27:41;;;;;;;5.63;4.40;;;17.90;99.90;;;;;;10282616;28;20225;-78
2023/09/15 00:32:43;;;;;;;4.70;4.27;;;17.80;99.90;;;;;;10272362;29;20206;-79
2023/09/15 00:37:46;;;;;;;4.37;4.07;;;17.80;99.90;;;;;;10243850;29;20221;-79
2023/09/15 00:42:52;;;;;;;4.50;4.20;;;17.70;99.90;;;;;;10253719;29;20194;-79
2023/09/15 00:47:56;;;;;;;4.30;4.00;;;17.70;99.90;;;;;;10262001;29;20217;-79
2023/09/15 00:53:02;;;;;;;4.33;4.03;;;17.70;99.90;;;;;;10251818;29;20224;-79
2023/09/15 00:58:08;;;;;;;4.80;4.40;;;17.60;99.90;;;;;;10266660;28;20248;-79
2023/09/15 01:03:11;;;;;;;3.90;3.70;;;17.60;99.90;;;;;;10245565;29;20194;-78
2023/09/15 01:08:15;;;;;;;4.53;4.20;;;17.50;99.90;;;;;;10273249;28;20224;-79
2023/09/15 01:13:19;;;;;;;4.73;4.33;;;17.50;99.90;;;;;;10245696;29;20221;-79
2023/09/15 01:18:31;;;;;;;6.00;4.80;;;17.50;99.90;;;;;;10225245;29;20600;-79
2023/09/15 01:23:54;;;;;;;4.33;4.03;;;17.50;99.90;;;;;;10239621;29;20197;-78
2023/09/15 01:29:32;;;;;;;4.17;3.87;;;17.50;99.90;;;;;;10253027;28;20638;-79
2023/09/15 01:34:37;;;;;;;4.73;4.33;;;17.50;99.90;;;;;;10218122;29;20233;-79
2023/09/15 01:39:39;;;;;;;4.73;4.33;;;17.50;99.90;;;;;;10254455;28;20790;-79
2023/09/15 01:44:41;;;;;;;5.30;4.50;;;17.50;99.90;;;;;;10235583;29;20568;-79
2023/09/15 01:49:45;;;;;;;4.40;4.10;;;17.50;99.90;;;;;;10243983;29;20280;-79
2023/09/15 01:54:49;;;;;;;5.20;4.80;;;17.40;99.90;;;;;;10232095;29;20321;-79
2023/09/15 01:59:51;;;;;;;5.00;4.60;;;17.40;99.90;;;;;;10222785;29;20288;-79
2023/09/15 02:04:55;;;;;;;5.87;5.30;;;17.40;99.90;;;;;;10242383;29;20285;-79
2023/09/15 02:09:57;;;;;;;5.27;4.93;;;17.30;99.90;;;;;;10256673;29;20229;-79
2023/09/15 02:14:59;;;;;;;6.30;4.97;;;17.30;99.90;;;;;;10247075;29;20213;-79
2023/09/15 02:20:11;;;;;;;5.23;4.83;;;17.30;99.90;;;;;;10248366;28;20221;-79
2023/09/15 02:25:13;;;;;;;4.77;4.43;;;17.30;99.90;;;;;;10242073;29;20673;-79
2023/09/15 02:30:16;;;;;;;5.07;4.57;;;17.30;99.90;;;;;;10217701;29;20228;-79
2023/09/15 02:35:20;;;;;;;5.30;4.90;;;17.30;99.90;;;;;;10215960;29;20229;-79
2023/09/15 02:40:25;;;;;;;5.60;4.90;;;17.30;99.90;;;;;;10246543;29;20764;-78
2023/09/15 02:45:27;;;;;;;5.60;5.20;;;17.20;99.90;;;;;;10236139;29;20665;-79
2023/09/15 02:50:32;;;;;;;8.13;5.37;;;17.20;99.90;;;;;;10222008;29;20228;-79
2023/09/15 02:55:34;;;;;;;5.27;4.87;;;17.20;99.90;;;;;;10238642;29;20222;-79
2023/09/15 03:00:36;;;;;;;6.13;5.63;;;17.10;99.90;;;;;;10239181;29;20228;-79
2023/09/15 03:05:40;;;;;;;6.03;5.37;;;17.10;99.90;;;;;;10233372;29;20198;-78
2023/09/15 03:10:42;;;;;;;7.17;5.20;;;17.10;99.90;;;;;;10224387;29;20226;-79
2023/09/15 03:15:44;;;;;;;8.93;5.50;;;17.10;99.90;;;;;;10224115;29;20353;-79
2023/09/15 03:20:49;;;;;;;5.70;5.30;;;17.00;99.90;;;;;;10220937;29;20248;-79
2023/09/15 03:25:59;;;;;;;5.23;4.87;;;17.00;99.90;;;;;;10204441;29;20249;-79
2023/09/15 03:31:04;;;;;;;5.70;4.90;;;16.90;99.90;;;;;;10237964;29;20429;-79
2023/09/15 03:36:09;;;;;;;5.40;5.00;;;16.90;99.90;;;;;;10230577;29;20595;-79
2023/09/15 03:41:12;;;;;;;5.77;5.27;;;16.90;99.90;;;;;;10206899;28;20224;-79
2023/09/15 03:46:15;;;;;;;5.00;4.70;;;16.90;99.90;;;;;;10213686;29;20207;-79
2023/09/15 03:51:19;;;;;;;5.20;4.80;;;16.90;99.90;;;;;;10258284;28;20233;-79
2023/09/15 03:56:21;;;;;;;5.03;4.70;;;16.80;99.90;;;;;;10227826;29;20229;-78
2023/09/15 04:01:23;;;;;;;5.47;4.97;;;16.80;99.90;;;;;;10259139;29;20225;-79
2023/09/15 04:06:27;;;;;;;6.30;5.80;;;16.80;99.90;;;;;;10228750;29;20197;-79
2023/09/15 04:11:29;;;;;;;6.00;5.50;;;16.80;99.90;;;;;;10240444;29;20214;-79
2023/09/15 04:16:31;;;;;;;6.10;5.50;;;16.70;99.90;;;;;;10260189;29;20221;-79
2023/09/15 04:21:37;;;;;;;5.97;5.40;;;16.70;99.90;;;;;;10256702;28;20226;-79
2023/09/15 04:26:40;;;;;;;8.13;5.70;;;16.70;99.90;;;;;;10258041;29;20224;-79
2023/09/15 04:31:44;;;;;;;6.50;5.90;;;16.70;99.90;;;;;;10234610;29;20226;-78
2023/09/15 04:36:47;;;;;;;5.87;5.37;;;16.60;99.90;;;;;;10220580;29;20218;-79
2023/09/15 04:41:50;;;;;;;6.17;5.67;;;16.60;99.90;;;;;;10240065;29;20228;-78
2023/09/15 04:46:52;;;;;;;5.67;5.27;;;16.60;99.90;;;;;;10256784;28;20257;-78
2023/09/15 04:51:57;;;;;;;5.43;5.00;;;16.60;99.90;;;;;;10260614;28;20213;-78
2023/09/15 04:56:59;;;;;;;6.40;5.60;;;16.60;99.90;;;;;;10255397;29;20241;-79
2023/09/15 05:02:02;;;;;;;6.90;5.70;;;16.60;99.90;;;;;;10236610;29;20202;-79
2023/09/15 05:07:06;;;;;;;6.10;5.60;;;16.60;99.90;;;;;;10225962;29;20205;-79
2023/09/15 05:12:08;;;;;;;6.00;5.50;;;16.50;99.90;;;;;;10260275;29;20235;-79
2023/09/15 05:17:12;;;;;;;6.00;5.50;;;16.50;99.90;;;;;;10242508;29;20233;-79
2023/09/15 05:22:15;;;;;;;7.93;5.70;;;16.50;99.90;;;;;;10225137;29;20202;-79
2023/09/15 05:27:18;;;;;;;7.20;5.80;;;16.60;99.90;;;;;;10225332;29;21115;-79
2023/09/15 05:32:21;;;;;;;6.47;5.87;;;16.60;99.90;;;;;;10256021;28;20316;-79
2023/09/15 05:37:24;;;;;;;6.73;5.93;;;16.60;99.90;;;;;;10260384;28;20232;-79
2023/09/15 05:42:28;;;;;;;5.90;5.40;;;16.60;99.90;;;;;;10229359;29;20194;-79
2023/09/15 05:47:30;;;;;;;6.07;5.53;;;16.70;99.90;;;;;;10226815;28;20217;-79
2023/09/15 05:52:34;;;;;;;6.73;6.13;;;16.70;99.90;;;;;;10223818;29;20217;-79
2023/09/15 05:57:37;;;;;;;5.93;5.53;;;16.80;99.90;;;;;;10223093;29;20728;-79
2023/09/15 06:02:39;;;;;;;6.77;6.17;;;16.80;99.90;;;;;;10249690;29;20289;-79
2023/09/15 06:07:42;;;;;;;6.33;5.73;;;16.90;99.90;;;;;;10255557;28;20236;-79
2023/09/15 06:12:44;;;;;;;6.77;6.27;;;16.90;99.90;;;;;;10249628;29;20213;-79
2023/09/15 06:17:46;;;;;;;6.90;6.30;;;17.00;99.90;;;;;;10258074;28;20259;-79
2023/09/15 06:22:51;;;;;;;8.30;6.57;;;17.00;99.90;;;;;;10246832;29;20202;-79
2023/09/15 06:27:53;;;;;;;7.23;6.53;;;17.10;99.90;;;;;;10257652;28;20239;-79
2023/09/15 06:32:55;;;;;;;6.80;6.20;;;17.20;99.90;;;;;;10248411;28;20355;-79
2023/09/15 06:37:59;;;;;;;7.90;6.30;;;17.30;99.90;;;;;;10257282;28;20229;-79
2023/09/15 06:43:04;;;;;;;10.10;6.80;;;17.40;99.90;;;;;;10230528;29;20209;-79
2023/09/15 06:48:06;;;;;;;7.10;5.60;;;17.40;99.90;;;;;;10244744;28;20247;-79
2023/09/15 06:53:09;;;;;;;6.20;5.70;;;17.50;99.90;;;;;;10231087;29;20208;-79
2023/09/15 06:58:11;;;;;;;6.93;6.33;;;17.60;99.90;;;;;;10211258;29;20252;-79
2023/09/15 07:03:14;;;;;;;6.53;5.93;;;17.70;99.90;;;;;;10244293;29;20253;-79
2023/09/15 07:08:17;;;;;;;6.47;5.97;;;17.80;99.90;;;;;;10254814;28;20225;-79
2023/09/15 07:13:19;;;;;;;7.43;6.70;;;17.80;99.90;;;;;;10233602;29;20216;-79
2023/09/15 07:18:21;;;;;;;6.20;5.70;;;17.90;99.90;;;;;;10220633;29;20226;-79
2023/09/15 07:23:25;;;;;;;7.90;6.43;;;18.00;99.90;;;;;;10240658;29;20236;-79
2023/09/15 07:28:27;;;;;;;8.20;6.53;;;18.00;99.90;;;;;;10254877;28;20232;-79
2023/09/15 07:33:30;;;;;;;8.30;7.60;;;18.10;99.90;;;;;;10240424;28;20731;-79
2023/09/15 07:38:33;;;;;;;8.10;7.30;;;18.20;99.90;;;;;;10232422;29;20261;-78
2023/09/15 07:43:35;;;;;;;12.80;7.67;;;18.30;99.90;;;;;;10237464;29;20544;-79
2023/09/15 07:48:37;;;;;;;6.00;5.50;;;18.40;99.90;;;;;;10237010;29;20615;-79
2023/09/15 07:53:41;;;;;;;8.50;7.63;;;18.40;99.90;;;;;;10237883;29;20222;-79
2023/09/15 07:58:43;;;;;;;7.50;6.50;;;18.50;99.90;;;;;;10251898;28;20236;-79
2023/09/15 08:03:45;;;;;;;12.13;7.40;;;18.70;99.90;;;;;;10241716;29;20198;-79
2023/09/15 08:08:49;;;;;;;7.37;6.67;;;18.70;99.90;;;;;;10251785;28;20249;-79
2023/09/15 08:13:51;;;;;;;7.43;6.67;;;18.90;99.90;;;;;;10240064;29;20194;-79
2023/09/15 08:18:53;;;;;;;7.60;6.90;;;19.00;99.90;;;;;;10258081;28;20229;-78
2023/09/15 08:23:57;;;;;;;7.30;6.57;;;19.10;99.90;;;;;;10241840;29;20209;-78
2023/09/15 08:28:59;;;;;;;6.50;5.83;;;19.20;99.90;;;;;;10239221;29;20225;-80
2023/09/15 08:34:01;;;;;;;7.53;6.80;;;19.30;99.90;;;;;;10247360;28;20205;-79
2023/09/15 08:39:05;;;;;;;7.53;6.53;;;19.40;99.90;;;;;;10254598;28;20224;-79
2023/09/15 08:44:09;;;;;;;7.30;6.60;;;19.50;99.90;;;;;;10251305;29;20205;-79
2023/09/15 08:49:12;;;;;;;8.97;8.17;;;19.60;99.90;;;;;;10259981;28;20249;-79
2023/09/15 08:54:15;;;;;;;7.20;6.50;;;19.70;99.90;;;;;;10252965;29;20657;-79
2023/09/15 08:59:18;;;;;;;8.60;6.80;;;19.80;99.90;;;;;;10237194;29;20727;-78
2023/09/15 09:04:20;;;;;;;6.10;5.60;;;19.80;99.90;;;;;;10269962;29;20202;-79
2023/09/15 09:09:24;;;;;;;8.50;7.53;;;19.90;99.90;;;;;;10277250;28;20317;-79
2023/09/15 09:14:26;;;;;;;8.30;6.30;;;20.00;99.90;;;;;;10278171;29;20231;-79
2023/09/15 09:19:36;;;;;;;6.47;5.83;;;20.10;99.90;;;;;;10237451;29;20278;-80
2023/09/15 09:24:39;;;;;;;7.63;6.93;;;20.20;99.90;;;;;;10229536;29;20201;-80
2023/09/15 09:29:41;;;;;;;9.00;7.53;;;20.20;99.90;;;;;;10252891;28;20673;-80
2023/09/15 09:34:43;;;;;;;7.60;6.90;;;20.30;99.90;;;;;;10237259;29;20221;-79
2023/09/15 09:39:48;;;;;;;6.37;5.80;;;20.40;99.90;;;;;;10219641;28;20313;-80
2023/09/15 09:44:52;;;;;;;6.07;5.60;;;20.50;99.90;;;;;;10227718;29;20206;-80
2023/09/15 09:49:54;;;;;;;6.93;6.33;;;20.80;99.90;;;;;;10231796;28;20226;-79
2023/09/15 09:55:01;;;;;;;6.73;5.70;;;21.20;99.90;;;;;;10228929;29;20213;-80
2023/09/15 10:00:04;;;;;;;8.37;7.13;;;21.50;99.90;;;;;;10250358;29;20229;-80
2023/09/15 10:05:07;;;;;;;6.13;5.60;;;21.90;99.90;;;;;;10232437;29;20254;-80
2023/09/15 10:10:12;;;;;;;6.80;6.30;;;22.00;99.90;;;;;;10243142;28;20244;-80
2023/09/15 10:15:14;;;;;;;7.10;6.40;;;22.00;99.90;;;;;;10256493;29;20215;-80
2023/09/15 10:20:17;;;;;;;6.50;5.97;;;21.90;99.90;;;;;;10236628;28;20322;-80
2023/09/15 10:25:21;;;;;;;6.87;6.27;;;21.80;99.90;;;;;;10242468;29;20197;-80
2023/09/15 10:30:23;;;;;;;6.50;6.00;;;21.80;99.90;;;;;;10252128;28;20696;-80
2023/09/15 10:35:27;;;;;;;7.30;6.70;;;21.70;99.90;;;;;;10216133;29;20222;-79
2023/09/15 10:40:43;;;;;;;7.43;6.83;;;21.70;99.90;;;;;;10241253;29;20221;-80
2023/09/15 10:45:55;;;;;;;6.57;5.90;;;21.70;99.90;;;;;;10251260;29;20201;-80
2023/09/15 10:51:06;;;;;;;7.27;6.67;;;21.80;99.90;;;;;;10251382;28;20699;-80
2023/09/15 10:56:10;;;;;;;7.43;6.80;;;21.70;99.90;;;;;;10253571;28;20229;-80
2023/09/15 11:01:13;;;;;;;6.30;5.70;;;21.80;99.90;;;;;;10255779;28;20715;-79
2023/09/15 11:06:16;;;;;;;6.13;5.63;;;21.80;99.90;;;;;;10256718;29;20205;-79
2023/09/15 11:11:19;;;;;;;9.40;7.33;;;21.80;99.90;;;;;;10221822;28;20218;-80
2023/09/15 11:16:24;;;;;;;7.00;6.47;;;21.80;99.90;;;;;;10221203;29;20214;-80
2023/09/15 11:21:28;;;;;;;7.37;6.67;;;21.80;99.90;;;;;;10248185;29;20245;-80
2023/09/15 11:26:32;;;;;;;7.20;6.57;;;21.80;99.90;;;;;;10249931;29;20190;-79
2023/09/15 11:31:37;;;;;;;6.57;6.07;;;21.90;99.90;;;;;;10234353;28;20221;-80
2023/09/15 11:36:41;;;;;;;7.20;6.47;;;21.90;99.90;;;;;;10222081;29;20225;-80
2023/09/15 11:41:53;;;;;;;6.53;5.80;;;22.00;99.90;;;;;;10225193;29;20237;-80
2023/09/15 11:46:57;;;;;;;6.10;5.60;;;22.00;99.90;;;;;;10229639;28;20217;-80
2023/09/15 11:52:04;;;;;;;6.27;5.77;;;22.00;99.90;;;;;;10212756;29;20206;-80
2023/09/15 11:57:10;;;;;;;5.70;5.30;;;22.10;99.90;;;;;;10225136;29;20224;-80
2023/09/15 12:02:12;;;;;;;5.97;5.47;;;22.10;99.90;;;;;;10245787;28;20209;-79
2023/09/15 12:07:14;;;;;;;6.10;5.60;;;22.30;99.60;;;;;;10233398;29;20218;-79
2023/09/15 12:12:18;;;;;;;6.37;5.83;;;22.40;99.40;;;;;;10251190;29;20575;-80
2023/09/15 12:17:20;;;;;;;6.07;5.63;;;22.40;99.60;;;;;;10250641;28;20236;-80
2023/09/15 12:22:30;;;;;;;6.07;5.47;;;22.50;99.20;;;;;;10264775;29;20244;-80
2023/09/15 12:27:34;;;;;;;5.67;5.27;;;22.60;99.00;;;;;;10246740;28;20253;-80
2023/09/15 12:32:37;;;;;;;5.40;5.00;;;22.70;98.70;;;;;;10253804;29;20651;-80
2023/09/15 12:37:42;;;;;;;5.27;4.90;;;22.70;98.40;;;;;;10247743;28;20228;-80
2023/09/15 12:42:46;;;;;;;5.70;5.20;;;22.90;97.40;;;;;;10236093;29;20601;-80
2023/09/15 12:47:48;;;;;;;5.67;5.27;;;23.00;97.60;;;;;;10254012;28;20226;-80
2023/09/15 12:52:50;;;;;;;4.37;4.00;;;23.00;97.80;;;;;;10239956;29;20226;-79
2023/09/15 12:57:53;;;;;;;4.73;4.03;;;23.00;96.20;;;;;;10243936;29;20225;-80
2023/09/15 13:02:55;;;;;;;4.13;3.87;;;23.00;95.50;;;;;;10253410;29;20209;-80
2023/09/15 13:07:58;;;;;;;5.20;4.80;;;23.10;95.80;;;;;;10252773;28;20691;-80
2023/09/15 13:13:01;;;;;;;4.70;4.30;;;23.10;94.80;;;;;;10242613;28;20206;-80
2023/09/15 13:18:06;;;;;;;4.70;4.00;;;23.10;95.20;;;;;;10238387;28;20222;-80
2023/09/15 13:23:08;;;;;;;4.80;4.40;;;23.10;95.00;;;;;;10245572;29;20217;-80
2023/09/15 13:28:12;;;;;;;4.77;4.37;;;23.20;94.00;;;;;;10245709;28;20226;-80
2023/09/15 13:33:14;;;;;;;5.60;5.13;;;23.20;94.30;;;;;;10257410;28;20205;-80
2023/09/15 13:38:16;;;;;;;4.97;4.57;;;23.30;93.40;;;;;;10250003;28;20594;-80
2023/09/15 13:43:21;;;;;;;5.73;5.23;;;23.40;94.20;;;;;;10245464;29;20569;-80
2023/09/15 13:48:23;;;;;;;5.33;4.40;;;23.40;95.00;;;;;;10235351;29;20226;-80
2023/09/15 13:53:25;;;;;;;5.47;5.07;;;23.40;94.80;;;;;;10245569;28;20221;-80
2023/09/15 13:58:28;;;;;;;4.57;4.17;;;23.50;94.50;;;;;;10248902;29;20788;-80
2023/09/15 14:03:30;;;;;;;4.80;4.40;;;23.60;94.10;;;;;;10254709;28;20552;-80
2023/09/15 14:08:33;;;;;;;5.63;5.13;;;23.60;94.70;;;;;;10247602;28;20312;-80
2023/09/15 14:13:36;;;;;;;5.63;4.63;;;23.60;94.90;;;;;;10254314;29;20288;-81
2023/09/15 14:18:38;;;;;;;6.20;5.60;;;23.60;95.80;;;;;;10244863;28;20252;-80
2023/09/15 14:23:40;;;;;;;5.83;5.33;;;23.60;95.50;;;;;;10248382;29;20205;-80
2023/09/15 14:28:44;;;;;;;6.03;5.53;;;23.50;96.10;;;;;;10252724;28;20225;-80
2023/09/15 14:33:46;;;;;;;5.27;4.87;;;23.50;95.70;;;;;;10250046;29;20202;-80
2023/09/15 14:38:48;;;;;;;6.00;5.40;;;23.50;96.40;;;;;;10222843;29;20226;-80
2023/09/15 14:43:52;;;;;;;5.80;5.20;;;23.50;96.30;;;;;;10233049;29;20230;-80
2023/09/15 14:48:54;;;;;;;5.73;5.30;;;23.60;96.20;;;;;;10225802;29;20226;-80
2023/09/15 14:53:56;;;;;;;7.33;5.90;;;23.70;96.50;;;;;;10231545;29;20213;-81
2023/09/15 14:58:59;;;;;;;6.20;5.60;;;23.80;96.20;;;;;;10242666;28;20233;-80
2023/09/15 15:04:02;;;;;;;6.40;5.77;;;23.70;96.40;;;;;;10251100;29;20205;-80
2023/09/15 15:09:05;;;;;;;7.57;6.87;;;23.80;96.30;;;;;;10243295;28;20222;-80
2023/09/15 15:14:09;;;;;;;6.47;5.87;;;23.70;96.50;;;;;;10254631;29;20197;-80
2023/09/15 15:19:11;;;;;;;5.73;5.30;;;23.70;96.60;;;;;;10241398;28;20329;-80
2023/09/15 15:24:13;;;;;;;6.57;5.97;;;23.70;96.80;;;;;;10229688;29;20729;-80
2023/09/15 15:29:16;;;;;;;6.33;5.77;;;23.70;97.10;;;;;;10242104;28;20232;-81
2023/09/15 15:34:18;;;;;;;5.90;5.40;;;23.70;96.60;;;;;;10248252;29;20214;-80
2023/09/15 15:39:21;;;;;;;6.33;5.83;;;23.70;97.00;;;;;;10240207;29;20595;-81
2023/09/15 15:44:24;;;;;;;6.90;6.30;;;23.60;97.10;;;;;;10247263;29;20641;-81
2023/09/15 15:49:32;;;;;;;6.70;5.73;;;23.70;97.00;;;;;;10247804;29;20232;-81
2023/09/15 15:54:34;;;;;;;6.30;5.80;;;23.80;96.70;;;;;;10266448;29;20217;-81
2023/09/15 15:59:37;;;;;;;6.83;6.23;;;23.80;96.50;;;;;;10260254;29;20221;-81
2023/09/15 16:04:39;;;;;;;6.50;5.90;;;23.90;96.50;;;;;;10279960;29;20209;-81
2023/09/15 16:09:41;;;;;;;6.80;6.30;;;23.80;96.90;;;;;;10257251;28;20738;-81
2023/09/15 16:14:45;;;;;;;6.63;6.03;;;23.80;96.60;;;;;;10252544;29;20208;-81
2023/09/15 16:19:47;;;;;;;5.20;4.80;;;23.90;96.60;;;;;;10247691;29;20232;-81
2023/09/15 16:24:49;;;;;;;7.00;6.40;;;23.80;97.10;;;;;;10268377;29;20326;-81
2023/09/15 16:29:53;;;;;;;8.30;7.13;;;23.70;97.80;;;;;;10267325;28;20221;-81
2023/09/15 16:34:57;;;;;;;6.97;6.37;;;23.60;98.30;;;;;;10265186;29;20551;-81
2023/09/15 16:39:59;;;;;;;6.90;6.30;;;23.50;98.00;;;;;;10251522;28;20325;-81
2023/09/15 16:45:03;;;;;;;7.37;6.77;;;23.50;97.70;;;;;;10231871;29;20206;-81
2023/09/15 16:50:08;;;;;;;7.30;6.53;;;23.50;98.00;;;;;;10240274;28;20218;-81
2023/09/15 16:55:10;;;;;;;7.67;7.03;;;23.50;98.10;;;;;;10233971;29;20201;-81
2023/09/15 17:00:15;;;;;;;7.53;6.83;;;23.40;98.10;;;;;;10262711;29;20229;-80
2023/09/15 17:05:18;;;;;;;7.50;6.77;;;23.40;98.30;;;;;;10284220;29;20209;-80
2023/09/15 17:10:20;;;;;;;7.10;6.50;;;23.30;98.60;;;;;;10276054;28;20221;-80
2023/09/15 17:15:23;;;;;;;7.20;6.60;;;23.20;98.70;;;;;;10246891;29;20623;-81
2023/09/15 17:20:26;;;;;;;7.27;6.57;;;23.20;98.90;;;;;;10243752;29;20229;-80
2023/09/15 17:25:28;;;;;;;7.83;7.10;;;23.10;99.10;;;;;;10262891;29;20205;-81
2023/09/15 17:30:31;;;;;;;7.87;7.17;;;23.00;99.50;;;;;;10265711;28;20221;-81
2023/09/15 17:35:33;;;;;;;8.73;7.93;;;22.90;99.90;;;;;;10255970;28;20202;-81
2023/09/15 17:40:35;;;;;;;9.00;8.17;;;22.80;99.90;;;;;;10251142;28;20226;-81
2023/09/15 17:45:39;;;;;;;7.80;7.20;;;22.70;99.90;;;;;;10233338;29;20202;-80
2023/09/15 17:50:41;;;;;;;16.77;15.13;;;22.60;99.90;;;;;;10244488;28;20245;-81
2023/09/15 17:55:44;;;;;;;9.17;8.37;;;22.60;99.90;;;;;;10235660;29;20209;-81
2023/09/15 18:00:47;;;;;;;8.50;7.60;;;22.50;99.90;;;;;;10238689;28;20233;-79
2023/09/15 18:05:49;;;;;;;9.97;9.07;;;22.40;99.90;;;;;;10234260;29;20206;-81
2023/09/15 18:10:51;;;;;;;9.37;7.77;;;22.30;99.90;;;;;;10232827;29;20220;-81
2023/09/15 18:15:55;;;;;;;8.10;7.40;;;22.20;99.90;;;;;;10255799;29;20213;-81
2023/09/15 18:20:57;;;;;;;8.50;7.80;;;22.10;99.90;;;;;;10250372;28;20736;-80
2023/09/15 18:25:59;;;;;;;8.70;8.07;;;22.00;99.90;;;;;;10236576;29;20205;-80
2023/09/15 18:31:03;;;;;;;9.57;8.77;;;21.90;99.90;;;;;;10252653;29;20228;-80
2023/09/15 18:36:05;;;;;;;11.13;10.13;;;21.90;99.90;;;;;;10246332;29;20688;-80
2023/09/15 18:41:07;;;;;;;9.20;8.40;;;21.80;99.90;;;;;;10254344;28;20229;-80
2023/09/15 18:46:11;;;;;;;9.93;9.13;;;21.80;99.90;;;;;;10243174;29;20208;-81
2023/09/15 18:51:13;;;;;;;9.40;8.60;;;21.70;99.90;;;;;;10252997;28;20293;-80
2023/09/15 18:56:15;;;;;;;9.67;8.70;;;21.70;99.90;;;;;;10239864;29;20244;-80
2023/09/15 19:01:22;;;;;;;9.77;8.90;;;21.60;99.90;;;;;;10254403;29;20240;-81
2023/09/15 19:06:24;;;;;;;10.37;9.33;;;21.60;99.90;;;;;;10241609;29;20204;-81
2023/09/15 19:11:26;;;;;;;11.63;10.63;;;21.60;99.90;;;;;;10253201;28;20788;-80
2023/09/15 19:16:29;;;;;;;9.50;8.50;;;21.60;99.90;;;;;;10241046;29;20238;-80
2023/09/15 19:21:32;;;;;;;9.03;8.23;;;21.60;99.90;;;;;;10227118;29;20616;-80
2023/09/15 19:26:34;;;;;;;10.80;9.70;;;21.60;99.90;;;;;;10239675;29;20197;-80
2023/09/15 19:31:37;;;;;;;9.43;8.63;;;21.50;99.90;;;;;;10260036;28;20217;-80
2023/09/15 19:36:40;;;;;;;10.07;9.07;;;21.50;99.90;;;;;;10237851;29;20193;-80
2023/09/15 19:41:42;;;;;;;9.30;8.50;;;21.50;99.90;;;;;;10255377;28;20300;-80
2023/09/15 19:46:45;;;;;;;10.50;9.40;;;21.40;99.90;;;;;;10245156;29;20266;-81
2023/09/15 19:51:47;;;;;;;10.50;9.60;;;21.40;99.90;;;;;;10255582;28;20225;-80
2023/09/15 19:56:51;;;;;;;15.90;14.40;;;21.30;99.90;;;;;;10234175;28;20217;-81
2023/09/15 20:01:55;;;;;;;11.77;10.67;;;21.30;99.90;;;;;;10226210;28;20257;-80
2023/09/15 20:06:57;;;;;;;9.70;8.80;;;21.20;99.90;;;;;;10233666;28;20685;-80
2023/09/15 20:11:59;;;;;;;9.00;8.30;;;21.20;99.90;;;;;;10255896;29;20206;-80
2023/09/15 20:17:03;;;;;;;11.17;10.17;;;21.10;99.90;;;;;;10230722;29;20245;-80
2023/09/15 20:22:05;;;;;;;9.97;8.97;;;21.00;99.90;;;;;;10247504;29;20216;-80
2023/09/15 20:27:07;;;;;;;9.93;9.03;;;20.90;99.90;;;;;;10237152;28;20206;-80
2023/09/15 20:32:10;;;;;;;8.90;8.10;;;20.80;99.90;;;;;;10227120;29;20358;-80
2023/09/15 20:37:12;;;;;;;8.67;7.87;;;20.70;99.90;;;;;;10236823;29;20293;-80
2023/09/15 20:42:15;;;;;;;9.73;8.93;;;20.70;99.90;;;;;;10264307;29;20593;-81
2023/09/15 20:47:19;;;;;;;9.63;8.83;;;20.60;99.90;;;;;;10254693;29;20226;-81
2023/09/15 20:52:21;;;;;;;10.37;9.47;;;20.50;99.90;;;;;;10264856;29;20205;-80
2023/09/15 20:57:23;;;;;;;10.13;9.23;;;20.50;99.90;;;;;;10242082;28;20225;-80
2023/09/15 21:02:26;;;;;;;9.23;8.50;;;20.40;99.90;;;;;;10249052;29;20231;-80
2023/09/15 21:07:28;;;;;;;10.23;9.40;;;20.40;99.90;;;;;;10258372;28;20224;-80
2023/09/15 21:12:31;;;;;;;10.10;9.20;;;20.30;99.90;;;;;;10224210;29;20206;-80
2023/09/15 21:17:35;;;;;;;9.10;8.40;;;20.20;99.90;;;;;;10249785;28;20222;-80
2023/09/15 21:22:38;;;;;;;9.80;8.80;;;20.20;99.90;;;;;;10238840;29;20201;-80
2023/09/15 21:27:40;;;;;;;9.30;8.50;;;20.10;99.90;;;;;;10232137;29;20692;-80
2023/09/15 21:32:43;;;;;;;9.60;8.80;;;20.10;99.90;;;;;;10237903;29;20737;-80
2023/09/15 21:37:45;;;;;;;10.53;9.50;;;20.10;99.90;;;;;;10227683;29;20280;-80
2023/09/15 21:42:47;;;;;;;9.67;8.80;;;20.00;99.90;;;;;;10246460;29;20213;-80
2023/09/15 21:47:51;;;;;;;9.77;8.97;;;19.90;99.90;;;;;;10251245;29;20222;-80
2023/09/15 21:52:53;;;;;;;9.70;8.87;;;19.90;99.90;;;;;;10242958;29;20292;-80
2023/09/15 21:57:55;;;;;;;10.03;9.13;;;19.90;99.90;;;;;;10261102;28;20233;-80
2023/09/15 22:02:59;;;;;;;10.23;9.33;;;19.80;99.90;;;;;;10242349;29;20202;-80
2023/09/15 22:08:03;;;;;;;9.60;8.70;;;19.80;99.90;;;;;;10260487;28;20218;-80
2023/09/15 22:13:05;;;;;;;10.37;9.53;;;19.80;99.90;;;;;;10237633;29;20209;-80
2023/09/15 22:18:12;;;;;;;11.03;9.57;;;19.80;99.90;;;;;;10227912;29;20608;-80
2023/09/15 22:23:16;;;;;;;9.87;8.97;;;19.80;99.90;;;;;;10259437;29;20205;-80
2023/09/15 22:28:18;;;;;;;9.00;8.40;;;19.70;99.90;;;;;;10260016;28;20249;-80
2023/09/15 22:33:22;;;;;;;11.20;9.63;;;19.70;99.90;;;;;;10220511;29;20201;-80
2023/09/15 22:38:25;;;;;;;10.77;9.87;;;19.70;99.90;;;;;;10225104;29;20252;-80
2023/09/15 22:43:29;;;;;;;11.00;10.10;;;19.60;99.90;;;;;;10257322;29;20248;-80
2023/09/15 22:48:32;;;;;;;11.80;10.70;;;19.60;99.90;;;;;;10241831;28;20231;-80
2023/09/15 22:53:34;;;;;;;11.03;10.10;;;19.60;99.90;;;;;;10227492;29;20213;-80
2023/09/15 22:58:36;;;;;;;11.10;10.00;;;19.60;99.90;;;;;;10238147;29;20584;-80
2023/09/15 23:03:40;;;;;;;10.90;10.00;;;19.50;99.90;;;;;;10237114;29;20201;-80
2023/09/15 23:08:43;;;;;;;11.60;9.90;;;19.50;99.90;;;;;;10225909;29;20221;-80
2023/09/15 23:13:45;;;;;;;10.57;9.77;;;19.40;99.90;;;;;;10252943;29;20208;-80
2023/09/15 23:18:49;;;;;;;11.10;10.20;;;19.40;99.90;;;;;;10252065;28;20248;-80
2023/09/15 23:23:51;;;;;;;11.77;10.70;;;19.40;99.90;;;;;;10232636;29;20340;-80
2023/09/15 23:28:54;;;;;;;11.67;9.90;;;19.40;99.90;;;;;;10241900;29;20224;-80
2023/09/15 23:33:57;;;;;;;12.57;11.10;;;19.40;99.90;;;;;;10240068;29;20588;-79
2023/09/15 23:39:00;;;;;;;10.50;9.60;;;19.40;99.90;;;;;;10232121;29;20221;-80
2023/09/15 23:44:02;;;;;;;10.00;9.03;;;19.40;99.90;;;;;;10250655;29;20212;-79
2023/09/15 23:49:06;;;;;;;10.10;9.20;;;19.40;99.90;;;;;;10239464;29;20700;-80
2023/09/15 23:54:08;;;;;;;10.37;9.47;;;19.40;99.90;;;;;;10247581;29;20189;-80
2023/09/15 23:59:10;;;;;;;10.47;9.57;;;19.30;99.90;;;;;;10270313;28;20225;-80
